Time;durP1;ratioP1;P1;durP2;ratioP2;P2;SDS_P1;SDS_P2;PMS_P1;PMS_P2;Temp;Humidity;BMP_temperature;BMP_pressure;BME280_temperature;BME280_humidity;BME280_pressure;Samples;Min_cycle;Max_cycle;Signal;HPM_P1;HPM_P2
2021/12/08 00:01:04;;;;;;;4.83;2.70;;;4.90;99.90;;;;;;5044021;28;20458;-68
2021/12/08 00:03:33;;;;;;;1.67;1.30;;;4.70;99.90;;;;;;5046360;28;20460;-68
2021/12/08 00:06:01;;;;;;;1.97;1.57;;;4.70;99.90;;;;;;5027110;28;20526;-68
2021/12/08 00:08:30;;;;;;;3.87;1.57;;;4.70;99.90;;;;;;5057314;28;20511;-68
2021/12/08 00:13:43;;;;;;;1.20;0.97;;;4.60;99.90;;;;;;5040278;28;20482;-67
2021/12/08 00:16:13;;;;;;;3.93;3.57;;;4.50;99.90;;;;;;5049293;28;20566;-69
2021/12/08 00:18:47;;;;;;;1.60;1.47;;;4.60;99.90;;;;;;5057028;28;20522;-67
2021/12/08 00:21:15;;;;;;;1.67;1.13;;;4.60;99.90;;;;;;5047308;28;20460;-67
2021/12/08 00:23:44;;;;;;;1.73;1.17;;;4.60;99.90;;;;;;5050967;28;20560;-67
2021/12/08 00:26:11;;;;;;;1.83;1.70;;;4.70;99.90;;;;;;5048289;28;20566;-69
2021/12/08 00:28:38;;;;;;;1.13;0.90;;;4.60;99.90;;;;;;5046234;28;23726;-68
2021/12/08 00:31:07;;;;;;;0.90;0.67;;;4.70;99.90;;;;;;5053684;28;20429;-68
2021/12/08 00:33:35;;;;;;;1.20;0.90;;;4.70;99.90;;;;;;5051131;28;20430;-67
2021/12/08 00:36:06;;;;;;;1.20;0.80;;;4.70;99.90;;;;;;5045295;28;20454;-67
2021/12/08 00:38:33;;;;;;;1.30;1.10;;;4.80;99.90;;;;;;5044727;28;20826;-67
2021/12/08 00:41:00;;;;;;;2.30;0.97;;;4.80;99.90;;;;;;5039452;28;20510;-68
2021/12/08 00:43:28;;;;;;;0.90;0.80;;;4.90;99.90;;;;;;5059471;28;20509;-69
2021/12/08 00:45:55;;;;;;;2.47;1.27;;;4.90;99.90;;;;;;5054658;28;21031;-69
2021/12/08 00:48:23;;;;;;;3.00;1.37;;;4.90;99.90;;;;;;5056378;28;20485;-67
2021/12/08 00:50:51;;;;;;;1.20;0.80;;;5.10;99.90;;;;;;5051605;28;21153;-68
2021/12/08 00:53:19;;;;;;;1.60;1.30;;;5.10;99.90;;;;;;5045091;28;20461;-69
2021/12/08 00:55:46;;;;;;;0.90;0.60;;;5.20;99.90;;;;;;5052547;28;20477;-68
2021/12/08 00:58:14;;;;;;;1.40;1.30;;;5.20;99.90;;;;;;5055399;28;20560;-67
2021/12/08 01:00:42;;;;;;;1.33;1.23;;;5.40;99.90;;;;;;5047326;28;20534;-68
2021/12/08 01:03:11;;;;;;;3.40;1.10;;;5.40;99.90;;;;;;5039504;28;20433;-68
2021/12/08 01:05:42;;;;;;;1.40;1.00;;;5.50;99.90;;;;;;5034290;28;20461;-68
2021/12/08 01:08:09;;;;;;;3.27;1.37;;;5.50;99.90;;;;;;5031092;28;20535;-67
2021/12/08 01:10:40;;;;;;;1.40;1.13;;;5.60;99.90;;;;;;5044660;28;20555;-67
2021/12/08 01:13:09;;;;;;;2.27;0.77;;;5.60;99.90;;;;;;5049084;28;20496;-67
2021/12/08 01:15:39;;;;;;;1.00;0.80;;;5.50;99.90;;;;;;5034126;28;20528;-68
2021/12/08 01:18:06;;;;;;;1.10;1.00;;;5.50;99.90;;;;;;5039283;28;20456;-68
2021/12/08 01:20:34;;;;;;;5.07;1.80;;;5.60;99.90;;;;;;5041483;28;20542;-67
2021/12/08 01:23:01;;;;;;;0.90;0.70;;;5.60;99.90;;;;;;5031095;28;20656;-68
2021/12/08 01:25:28;;;;;;;3.30;1.37;;;5.50;99.90;;;;;;5034736;28;21105;-68
2021/12/08 01:27:57;;;;;;;0.90;0.80;;;5.50;99.90;;;;;;5059348;28;20446;-68
2021/12/08 01:30:24;;;;;;;1.10;1.00;;;5.50;99.90;;;;;;5052813;28;21018;-68
2021/12/08 01:32:52;;;;;;;2.03;1.10;;;5.40;99.90;;;;;;5047729;28;20459;-68
2021/12/08 01:35:19;;;;;;;1.10;1.00;;;5.40;99.90;;;;;;5042775;28;20445;-68
2021/12/08 01:37:46;;;;;;;1.13;1.03;;;5.40;99.90;;;;;;5046069;28;20447;-67
2021/12/08 01:40:15;;;;;;;1.07;0.90;;;5.40;99.90;;;;;;5050792;28;20459;-68
2021/12/08 01:42:46;;;;;;;1.20;0.80;;;5.40;99.90;;;;;;5056757;28;20497;-68
2021/12/08 01:48:03;;;;;;;1.60;0.90;;;5.30;99.90;;;;;;5048994;28;20867;-68
2021/12/08 01:50:30;;;;;;;1.73;1.33;;;5.20;99.90;;;;;;5045617;28;20467;-68
2021/12/08 01:52:57;;;;;;;1.10;1.00;;;5.30;99.90;;;;;;5051426;28;20501;-68
2021/12/08 01:55:24;;;;;;;1.20;1.10;;;5.30;99.90;;;;;;5049073;28;20530;-68
2021/12/08 01:57:51;;;;;;;2.23;1.50;;;5.30;99.90;;;;;;5054117;28;20463;-68
2021/12/08 02:00:23;;;;;;;1.63;1.30;;;5.30;99.90;;;;;;5048952;28;20963;-68
2021/12/08 02:02:50;;;;;;;2.67;1.23;;;5.20;99.90;;;;;;5040338;28;21250;-68
2021/12/08 02:05:18;;;;;;;1.10;0.90;;;5.30;99.90;;;;;;5048754;28;20788;-68
2021/12/08 02:07:45;;;;;;;1.30;0.83;;;5.30;99.90;;;;;;5055492;28;20488;-69
2021/12/08 02:10:13;;;;;;;1.70;1.10;;;5.30;99.90;;;;;;5045754;28;20438;-67
2021/12/08 02:12:41;;;;;;;2.03;1.67;;;5.30;99.90;;;;;;5051922;28;20503;-70
2021/12/08 02:15:11;;;;;;;1.50;1.40;;;5.40;99.90;;;;;;5059090;28;20480;-67
2021/12/08 02:17:41;;;;;;;2.70;2.50;;;5.40;99.90;;;;;;5055900;28;20886;-68
2021/12/08 02:20:11;;;;;;;1.40;1.30;;;5.40;99.90;;;;;;5052122;28;20449;-68
2021/12/08 02:22:40;;;;;;;1.20;1.07;;;5.40;99.90;;;;;;5058695;28;20543;-67
2021/12/08 02:25:10;;;;;;;1.00;0.73;;;5.50;99.90;;;;;;5049214;28;20486;-69
2021/12/08 02:27:37;;;;;;;7.70;4.63;;;5.50;99.90;;;;;;5061705;28;20421;-68
2021/12/08 02:30:14;;;;;;;1.17;1.07;;;5.40;99.90;;;;;;5054967;28;20561;-67
2021/12/08 02:46:45;;;;;;;1.23;1.13;;;5.60;99.90;;;;;;5037257;28;20481;-67
2021/12/08 02:49:12;;;;;;;2.30;1.20;;;5.60;99.90;;;;;;5054878;28;20910;-67
2021/12/08 02:51:40;;;;;;;1.50;1.40;;;5.70;99.90;;;;;;5050870;28;20642;-66
2021/12/08 02:54:08;;;;;;;1.70;1.40;;;5.80;99.90;;;;;;5050961;28;20437;-68
2021/12/08 02:56:35;;;;;;;1.00;0.90;;;5.80;99.90;;;;;;5051739;28;20573;-67
2021/12/08 02:59:04;;;;;;;1.53;1.30;;;5.80;99.90;;;;;;5048587;28;20554;-67
2021/12/08 03:01:32;;;;;;;1.27;1.00;;;5.80;99.90;;;;;;5048154;28;20939;-68
2021/12/08 03:03:59;;;;;;;1.27;1.17;;;5.90;99.90;;;;;;5059228;28;20856;-68
2021/12/08 03:06:26;;;;;;;0.90;0.70;;;5.90;99.90;;;;;;5052932;28;20558;-67
2021/12/08 03:08:53;;;;;;;0.90;0.77;;;5.90;99.90;;;;;;5053001;28;20487;-67
2021/12/08 03:11:21;;;;;;;3.43;1.27;;;6.00;99.90;;;;;;5052719;28;20561;-67
2021/12/08 03:14:01;;;;;;;1.23;0.80;;;6.00;99.90;;;;;;5042118;28;20509;-68
2021/12/08 03:16:28;;;;;;;1.50;1.40;;;6.00;99.90;;;;;;5049449;28;20569;-67
2021/12/08 03:18:56;;;;;;;8.73;2.27;;;6.00;99.90;;;;;;5055776;28;20583;-68
2021/12/08 03:21:29;;;;;;;1.03;0.93;;;6.00;99.90;;;;;;5061135;28;20851;-68
2021/12/08 03:24:08;;;;;;;1.20;0.90;;;6.10;99.90;;;;;;5056385;28;20465;-67
2021/12/08 03:26:45;;;;;;;2.73;2.50;;;6.20;99.90;;;;;;5029048;28;20458;-67
2021/12/08 03:29:21;;;;;;;2.23;2.13;;;6.40;99.90;;;;;;5045705;28;20506;-67
2021/12/08 03:31:51;;;;;;;1.10;0.90;;;6.40;99.90;;;;;;5049558;28;20422;-68
2021/12/08 03:34:21;;;;;;;1.00;0.80;;;6.40;99.90;;;;;;5055764;28;20432;-67
2021/12/08 03:36:48;;;;;;;1.37;0.97;;;6.40;99.90;;;;;;5057171;28;20558;-68
2021/12/08 03:39:16;;;;;;;1.00;0.80;;;6.50;99.90;;;;;;5043533;28;20433;-67
2021/12/08 03:41:45;;;;;;;1.23;1.13;;;6.40;99.90;;;;;;5040941;28;20453;-67
2021/12/08 03:44:12;;;;;;;2.80;1.17;;;6.40;99.90;;;;;;5050851;28;20469;-68
2021/12/08 03:46:42;;;;;;;1.30;1.00;;;6.40;99.90;;;;;;5053881;28;20493;-68
2021/12/08 03:49:11;;;;;;;1.13;1.00;;;6.50;99.90;;;;;;5046490;28;20433;-68
2021/12/08 03:51:39;;;;;;;0.90;0.70;;;6.60;99.90;;;;;;5052179;28;20465;-68
2021/12/08 03:54:07;;;;;;;1.20;0.90;;;6.70;99.90;;;;;;5063649;28;20552;-68
2021/12/08 03:56:35;;;;;;;1.97;1.77;;;6.70;99.90;;;;;;5029778;28;20604;-68
2021/12/08 03:59:06;;;;;;;1.27;1.17;;;6.50;99.90;;;;;;5052251;28;20845;-67
2021/12/08 04:01:35;;;;;;;1.63;1.40;;;6.60;99.90;;;;;;5038845;28;20507;-68
2021/12/08 04:04:06;;;;;;;1.33;1.07;;;6.70;99.90;;;;;;5048267;28;20449;-67
2021/12/08 04:06:41;;;;;;;1.77;1.43;;;6.80;99.90;;;;;;5049951;28;20494;-68
2021/12/08 04:09:16;;;;;;;1.30;1.20;;;6.80;99.90;;;;;;5043002;28;20756;-68
2021/12/08 04:11:44;;;;;;;2.33;1.07;;;6.80;99.90;;;;;;5055522;28;20425;-67
2021/12/08 04:14:15;;;;;;;1.20;0.90;;;6.70;99.90;;;;;;5048633;28;20515;-67
2021/12/08 04:16:49;;;;;;;2.10;1.33;;;6.70;99.90;;;;;;5044385;28;20544;-67
2021/12/08 04:19:17;;;;;;;1.73;1.37;;;6.80;99.90;;;;;;5050153;28;20469;-67
2021/12/08 04:21:47;;;;;;;2.20;1.30;;;7.00;99.90;;;;;;5053332;28;20521;-67
2021/12/08 04:24:14;;;;;;;3.90;1.30;;;7.00;99.90;;;;;;5046600;28;20443;-67
2021/12/08 04:26:49;;;;;;;7.30;1.47;;;6.90;99.90;;;;;;5049126;28;20915;-67
2021/12/08 04:29:20;;;;;;;0.90;0.70;;;6.60;99.90;;;;;;5054337;28;20928;-67
2021/12/08 04:31:50;;;;;;;1.83;1.53;;;6.70;99.90;;;;;;5036270;28;20555;-67
2021/12/08 04:34:24;;;;;;;1.10;1.00;;;6.80;99.90;;;;;;5045348;28;20453;-66
2021/12/08 04:36:53;;;;;;;1.20;1.03;;;6.70;99.90;;;;;;5037616;28;20549;-67
2021/12/08 04:39:25;;;;;;;1.23;0.80;;;6.80;99.90;;;;;;5037202;28;20467;-67
2021/12/08 04:41:59;;;;;;;1.20;1.00;;;6.70;99.90;;;;;;5051301;28;20752;-68
2021/12/08 04:44:34;;;;;;;2.47;2.27;;;6.70;99.90;;;;;;5038604;28;20515;-68
2021/12/08 04:52:43;;;;;;;1.23;1.13;;;6.50;99.90;;;;;;5032556;28;20553;-68
2021/12/08 05:01:13;;;;;;;2.30;1.93;;;6.60;99.90;;;;;;5034486;28;20458;-68
2021/12/08 05:04:01;;;;;;;2.27;1.47;;;6.50;99.90;;;;;;5043585;28;20475;-68
2021/12/08 05:06:40;;;;;;;1.17;1.07;;;6.50;99.90;;;;;;5045700;28;20480;-69
2021/12/08 05:09:10;;;;;;;1.33;1.23;;;6.50;99.90;;;;;;5048878;28;20520;-67
2021/12/08 05:11:43;;;;;;;0.90;0.70;;;6.60;99.90;;;;;;5036788;28;20444;-68
2021/12/08 05:14:15;;;;;;;2.30;1.20;;;6.60;99.90;;;;;;5045159;28;20511;-68
2021/12/08 05:16:54;;;;;;;3.13;1.37;;;6.50;99.90;;;;;;5048738;28;20483;-68
2021/12/08 05:19:24;;;;;;;1.47;0.90;;;6.40;99.90;;;;;;5049256;28;20482;-68
2021/12/08 05:21:54;;;;;;;1.20;1.10;;;6.40;99.90;;;;;;5039877;28;21042;-69
2021/12/08 05:24:28;;;;;;;1.57;1.00;;;6.50;99.90;;;;;;5044432;28;20501;-68
2021/12/08 05:26:59;;;;;;;1.30;1.10;;;6.50;99.90;;;;;;5036954;28;20632;-68
2021/12/08 05:29:32;;;;;;;1.60;1.20;;;6.40;99.90;;;;;;5051529;28;20469;-67
2021/12/08 05:32:02;;;;;;;1.23;0.97;;;6.50;99.90;;;;;;5046069;28;20651;-67
2021/12/08 05:34:29;;;;;;;1.50;1.30;;;6.50;99.90;;;;;;5036972;28;20477;-67
2021/12/08 05:36:57;;;;;;;1.03;0.90;;;6.50;99.90;;;;;;5026514;28;20528;-67
2021/12/08 05:39:27;;;;;;;1.50;1.20;;;6.50;99.90;;;;;;5044868;28;20434;-67
2021/12/08 05:41:58;;;;;;;4.33;1.20;;;6.50;99.90;;;;;;5058515;28;20456;-67
2021/12/08 05:44:26;;;;;;;1.67;1.30;;;6.50;99.90;;;;;;5054548;28;20525;-68
2021/12/08 05:46:57;;;;;;;1.00;0.80;;;6.50;99.90;;;;;;5050602;28;20784;-69
2021/12/08 05:49:28;;;;;;;1.63;1.33;;;6.60;99.90;;;;;;5045753;28;20762;-69
2021/12/08 05:51:58;;;;;;;3.47;1.90;;;6.50;99.90;;;;;;5052303;28;20533;-69
2021/12/08 05:54:30;;;;;;;9.33;1.00;;;6.50;99.90;;;;;;5049440;28;20457;-68
2021/12/08 05:56:59;;;;;;;2.43;2.23;;;6.60;99.90;;;;;;5045071;28;20458;-66
2021/12/08 05:59:26;;;;;;;1.20;1.10;;;6.60;99.90;;;;;;5056170;28;20431;-69
2021/12/08 06:01:58;;;;;;;1.27;0.87;;;6.50;99.90;;;;;;5053019;28;20445;-70
2021/12/08 06:04:30;;;;;;;0.90;0.80;;;6.50;99.90;;;;;;5052993;28;20496;-68
2021/12/08 06:06:59;;;;;;;1.20;1.10;;;6.50;99.90;;;;;;5034181;28;20505;-68
2021/12/08 06:09:27;;;;;;;1.93;1.30;;;6.40;99.90;;;;;;5052580;28;20536;-69
2021/12/08 06:11:56;;;;;;;1.50;0.80;;;6.40;99.90;;;;;;5048508;28;20459;-69
2021/12/08 06:14:31;;;;;;;2.43;1.53;;;6.50;99.90;;;;;;5040589;28;20532;-68
2021/12/08 06:16:59;;;;;;;2.40;1.50;;;6.50;99.90;;;;;;5047482;28;20517;-68
2021/12/08 06:19:28;;;;;;;4.83;1.40;;;6.40;99.90;;;;;;5049514;28;20501;-67
2021/12/08 06:21:55;;;;;;;1.00;0.77;;;6.40;99.90;;;;;;5050196;28;20497;-70
2021/12/08 06:24:23;;;;;;;2.30;1.90;;;6.30;99.90;;;;;;5047862;28;20477;-69
2021/12/08 06:26:51;;;;;;;1.50;1.40;;;6.20;99.90;;;;;;5045621;28;20547;-70
2021/12/08 06:29:20;;;;;;;2.30;1.40;;;6.20;99.90;;;;;;5053683;28;20577;-69
2021/12/08 06:31:51;;;;;;;2.93;1.80;;;6.20;99.90;;;;;;5055485;28;20866;-69
2021/12/08 06:34:18;;;;;;;2.50;1.20;;;6.20;99.90;;;;;;5047504;28;20447;-68
2021/12/08 06:36:49;;;;;;;1.37;1.27;;;6.20;99.90;;;;;;5049965;28;20544;-68
2021/12/08 06:39:21;;;;;;;2.00;1.43;;;6.20;99.90;;;;;;5043896;28;20996;-68
2021/12/08 06:41:52;;;;;;;1.67;1.10;;;6.20;99.90;;;;;;5056602;28;20439;-67
2021/12/08 06:44:22;;;;;;;3.33;1.20;;;6.20;99.90;;;;;;5044023;28;20490;-67
2021/12/08 06:46:50;;;;;;;16.47;1.53;;;6.40;99.90;;;;;;5046780;28;20885;-68
2021/12/08 06:49:19;;;;;;;1.97;1.20;;;6.30;99.90;;;;;;5058262;28;20528;-67
2021/12/08 06:51:52;;;;;;;1.30;1.20;;;6.30;99.90;;;;;;5044775;28;20457;-66
2021/12/08 06:54:26;;;;;;;1.97;1.30;;;6.30;99.90;;;;;;5055765;28;20861;-67
2021/12/08 06:57:00;;;;;;;1.97;1.40;;;6.20;99.90;;;;;;5051881;28;20561;-67
2021/12/08 06:59:33;;;;;;;2.20;1.40;;;6.20;99.90;;;;;;5053160;28;20545;-68
2021/12/08 07:02:08;;;;;;;3.10;2.00;;;6.20;99.90;;;;;;5045448;28;20478;-66
2021/12/08 07:04:53;;;;;;;4.33;1.77;;;6.10;99.90;;;;;;5058285;28;20456;-67
2021/12/08 07:07:24;;;;;;;3.93;1.30;;;6.10;99.90;;;;;;5048134;28;20596;-66
2021/12/08 07:09:54;;;;;;;2.40;1.43;;;6.00;99.90;;;;;;5051461;28;20508;-68
2021/12/08 07:12:26;;;;;;;2.20;2.00;;;6.20;99.90;;;;;;5054236;28;20478;-67
2021/12/08 07:14:58;;;;;;;1.43;1.03;;;6.20;99.90;;;;;;5044649;28;20995;-67
2021/12/08 07:17:28;;;;;;;9.07;1.80;;;6.10;99.90;;;;;;5048447;28;21835;-67
2021/12/08 07:20:14;;;;;;;1.43;1.33;;;6.10;99.90;;;;;;5064800;28;20529;-67
2021/12/08 07:22:45;;;;;;;1.30;1.13;;;6.00;99.90;;;;;;5063187;28;20821;-68
2021/12/08 07:25:14;;;;;;;1.47;1.13;;;6.00;99.90;;;;;;5042950;28;20486;-68
2021/12/08 07:27:42;;;;;;;1.57;1.00;;;6.00;99.90;;;;;;5060945;28;20489;-68
2021/12/08 07:30:12;;;;;;;2.90;1.63;;;6.10;99.90;;;;;;5065735;28;20822;-68
2021/12/08 07:32:41;;;;;;;2.17;1.67;;;6.10;99.90;;;;;;5060305;28;20494;-68
2021/12/08 07:35:13;;;;;;;1.53;1.43;;;6.30;99.90;;;;;;5061327;28;20506;-68
2021/12/08 07:37:41;;;;;;;3.10;1.50;;;6.50;99.90;;;;;;5059320;28;20543;-68
2021/12/08 07:40:14;;;;;;;1.53;1.43;;;6.60;99.90;;;;;;5054006;28;20469;-67
2021/12/08 07:42:47;;;;;;;2.60;1.30;;;6.50;99.90;;;;;;5052921;28;20426;-66
2021/12/08 07:45:19;;;;;;;6.63;1.17;;;6.40;99.90;;;;;;5047712;28;20582;-67
2021/12/08 07:47:49;;;;;;;2.07;1.30;;;6.40;99.90;;;;;;5054725;28;20515;-68
2021/12/08 07:50:22;;;;;;;1.57;0.80;;;6.40;99.90;;;;;;5058845;28;20555;-67
2021/12/08 07:52:54;;;;;;;2.30;1.43;;;6.40;99.90;;;;;;5062569;28;20534;-67
2021/12/08 07:55:24;;;;;;;2.63;1.40;;;6.40;99.90;;;;;;5030601;28;20479;-68
2021/12/08 07:57:52;;;;;;;2.30;1.47;;;6.50;99.90;;;;;;5055523;28;21014;-67
2021/12/08 08:00:25;;;;;;;1.10;1.00;;;6.50;99.90;;;;;;5048149;28;20464;-67
2021/12/08 08:02:54;;;;;;;2.80;1.87;;;6.50;99.90;;;;;;5056220;28;20820;-67
2021/12/08 08:05:27;;;;;;;6.40;2.47;;;6.40;99.90;;;;;;5044375;28;21588;-68
2021/12/08 08:07:57;;;;;;;3.80;1.50;;;6.50;99.90;;;;;;5060240;28;20444;-67
2021/12/08 08:10:27;;;;;;;4.40;1.80;;;6.30;99.90;;;;;;5046131;28;20469;-68
2021/12/08 08:12:59;;;;;;;4.90;1.57;;;6.30;99.90;;;;;;5049174;28;20534;-67
2021/12/08 08:15:30;;;;;;;1.53;1.43;;;6.30;99.90;;;;;;5047192;28;20500;-67
2021/12/08 08:17:57;;;;;;;6.37;1.00;;;6.40;99.90;;;;;;5042173;28;20463;-66
2021/12/08 08:20:27;;;;;;;7.93;1.30;;;6.50;99.90;;;;;;5048262;28;20444;-67
2021/12/08 08:22:56;;;;;;;1.50;1.40;;;6.60;99.90;;;;;;5046756;28;20518;-67
2021/12/08 08:25:30;;;;;;;0.90;0.60;;;6.50;99.90;;;;;;5047677;28;20484;-66
2021/12/08 08:27:57;;;;;;;2.13;1.30;;;6.60;99.90;;;;;;5057157;28;20450;-68
2021/12/08 08:30:28;;;;;;;2.10;1.73;;;6.60;99.90;;;;;;5060070;28;20454;-68
2021/12/08 08:32:57;;;;;;;2.37;1.40;;;6.50;99.90;;;;;;5044722;28;20450;-68
2021/12/08 08:35:29;;;;;;;2.27;1.77;;;6.50;99.90;;;;;;5043060;28;20562;-68
2021/12/08 08:38:00;;;;;;;3.47;1.70;;;6.60;99.90;;;;;;5051586;28;20517;-67
2021/12/08 08:40:35;;;;;;;2.60;1.43;;;6.60;99.90;;;;;;5051775;28;20943;-68
2021/12/08 08:43:04;;;;;;;1.70;1.57;;;6.70;99.90;;;;;;5054388;28;20465;-68
2021/12/08 08:45:34;;;;;;;1.50;1.40;;;6.70;99.90;;;;;;5045973;28;20487;-68
2021/12/08 08:48:07;;;;;;;2.17;1.30;;;6.70;99.90;;;;;;5049059;28;20522;-68
2021/12/08 08:50:40;;;;;;;1.20;1.00;;;6.70;99.90;;;;;;5045572;28;20679;-68
2021/12/08 08:53:10;;;;;;;2.43;1.40;;;6.70;99.90;;;;;;5058748;28;20480;-68
2021/12/08 08:55:40;;;;;;;2.10;1.50;;;6.80;99.90;;;;;;5050805;28;20508;-68
2021/12/08 08:58:11;;;;;;;2.30;1.40;;;6.80;99.90;;;;;;5056723;28;20555;-67
2021/12/08 09:00:42;;;;;;;1.47;1.37;;;6.90;99.90;;;;;;5061154;28;20471;-67
2021/12/08 09:03:12;;;;;;;6.33;1.63;;;6.80;99.90;;;;;;5060012;28;20570;-67
2021/12/08 09:05:46;;;;;;;1.50;1.33;;;6.80;99.90;;;;;;5043123;28;20457;-67
2021/12/08 09:08:17;;;;;;;4.67;3.10;;;7.20;99.90;;;;;;5063263;28;20421;-67
2021/12/08 09:10:48;;;;;;;1.17;1.07;;;7.20;99.90;;;;;;5057210;28;20455;-69
2021/12/08 09:13:19;;;;;;;1.90;1.10;;;7.10;99.90;;;;;;5057548;28;20516;-68
2021/12/08 09:15:50;;;;;;;1.37;1.07;;;7.20;99.90;;;;;;5053832;28;20475;-67
2021/12/08 09:18:22;;;;;;;3.03;1.80;;;7.10;99.90;;;;;;5049628;28;20518;-68
2021/12/08 09:20:57;;;;;;;2.13;1.20;;;7.30;99.90;;;;;;5046679;28;20461;-67
2021/12/08 09:23:29;;;;;;;5.90;2.30;;;7.40;99.90;;;;;;5052154;28;20482;-67
2021/12/08 09:26:00;;;;;;;1.73;1.63;;;7.50;99.90;;;;;;5044175;28;20541;-67
2021/12/08 09:28:30;;;;;;;3.63;1.53;;;7.60;99.90;;;;;;5048922;28;20529;-67
2021/12/08 09:31:02;;;;;;;1.37;1.27;;;7.80;99.90;;;;;;5040070;28;20464;-67
2021/12/08 09:33:37;;;;;;;2.40;1.50;;;7.80;99.90;;;;;;5058292;28;20446;-67
2021/12/08 09:36:11;;;;;;;2.20;1.30;;;7.70;99.90;;;;;;5062367;28;20478;-68
2021/12/08 09:38:42;;;;;;;2.37;1.97;;;7.80;99.90;;;;;;5061939;28;20435;-68
2021/12/08 09:41:15;;;;;;;6.00;2.20;;;7.80;99.90;;;;;;5056181;28;20786;-67
2021/12/08 09:43:45;;;;;;;2.07;1.30;;;7.70;99.90;;;;;;5049431;28;20529;-68
2021/12/08 09:46:16;;;;;;;1.37;1.20;;;7.60;99.90;;;;;;5061776;28;20692;-68
2021/12/08 09:48:46;;;;;;;1.40;1.30;;;7.80;99.90;;;;;;5058614;28;20962;-68
2021/12/08 09:51:16;;;;;;;1.30;1.17;;;7.90;99.90;;;;;;5059181;28;20473;-69
2021/12/08 09:53:46;;;;;;;1.13;1.03;;;7.90;99.90;;;;;;5061581;28;20502;-68
2021/12/08 09:56:15;;;;;;;3.10;1.17;;;7.90;99.90;;;;;;5059507;28;20609;-68
2021/12/08 09:58:42;;;;;;;2.27;1.50;;;8.00;99.90;;;;;;5056610;28;20513;-68
2021/12/08 10:01:16;;;;;;;3.93;1.60;;;7.80;99.90;;;;;;5063675;28;21019;-68
2021/12/08 10:03:44;;;;;;;2.07;1.30;;;7.80;99.90;;;;;;5061560;28;20525;-68
2021/12/08 10:06:12;;;;;;;3.00;1.00;;;7.90;99.90;;;;;;5055512;28;20506;-68
2021/12/08 10:08:41;;;;;;;1.97;1.40;;;8.00;99.90;;;;;;5063176;28;20486;-68
2021/12/08 10:11:09;;;;;;;1.93;1.20;;;8.20;99.90;;;;;;5059518;28;20539;-68
2021/12/08 10:13:36;;;;;;;1.23;1.00;;;7.90;99.90;;;;;;5059099;28;20458;-68
2021/12/08 10:16:04;;;;;;;1.70;1.40;;;8.00;99.90;;;;;;5066793;28;20510;-67
2021/12/08 10:18:31;;;;;;;5.73;1.57;;;7.90;99.90;;;;;;5066063;28;20836;-68
2021/12/08 10:20:58;;;;;;;8.53;1.30;;;7.80;99.90;;;;;;5061537;28;20831;-68
2021/12/08 10:23:29;;;;;;;5.10;2.03;;;7.70;99.90;;;;;;5050465;28;20538;-68
2021/12/08 10:25:58;;;;;;;1.40;1.03;;;7.70;99.90;;;;;;5055990;28;20474;-68
2021/12/08 10:28:30;;;;;;;1.20;0.90;;;7.80;99.90;;;;;;5057179;28;20455;-68
2021/12/08 10:31:06;;;;;;;6.40;1.13;;;8.00;99.90;;;;;;5056849;28;20429;-68
2021/12/08 10:34:03;;;;;;;2.50;1.10;;;7.80;99.90;;;;;;5056761;28;20869;-68
2021/12/08 10:36:45;;;;;;;3.13;1.33;;;7.70;99.90;;;;;;5058800;28;20491;-68
2021/12/08 10:39:16;;;;;;;4.60;1.20;;;7.90;99.90;;;;;;5063651;28;20814;-68
2021/12/08 10:42:06;;;;;;;20.53;1.93;;;7.90;99.90;;;;;;5065577;28;20496;-68
2021/12/08 10:44:43;;;;;;;1.10;0.90;;;7.80;99.90;;;;;;5060877;28;20603;-68
2021/12/08 10:47:11;;;;;;;4.20;1.00;;;7.70;99.90;;;;;;5065446;28;20551;-68
2021/12/08 10:55:17;;;;;;;1.60;1.50;;;7.70;99.90;;;;;;5051415;28;20640;-68
2021/12/08 10:57:47;;;;;;;2.43;1.20;;;7.70;99.90;;;;;;5058279;28;20470;-68
2021/12/08 11:00:19;;;;;;;3.60;1.57;;;7.80;99.90;;;;;;5050944;28;20550;-68
2021/12/08 11:02:50;;;;;;;2.17;1.43;;;7.90;99.90;;;;;;5050812;28;20516;-67
2021/12/08 11:05:53;;;;;;;1.10;0.97;;;7.90;99.90;;;;;;5046424;28;20491;-69
2021/12/08 11:08:28;;;;;;;4.60;1.17;;;7.90;99.90;;;;;;5049665;28;20478;-69
2021/12/08 11:10:59;;;;;;;1.50;1.03;;;7.80;99.90;;;;;;5062867;28;20448;-69
2021/12/08 11:13:28;;;;;;;2.47;1.80;;;7.80;99.90;;;;;;5057189;28;20450;-69
2021/12/08 11:16:11;;;;;;;1.53;1.10;;;7.80;99.90;;;;;;5053658;28;20550;-68
2021/12/08 11:18:39;;;;;;;1.10;1.00;;;7.90;99.90;;;;;;5053809;28;20826;-67
2021/12/08 11:21:15;;;;;;;2.40;2.30;;;8.10;99.90;;;;;;5064169;28;20947;-68
2021/12/08 11:23:45;;;;;;;1.43;1.20;;;8.20;99.90;;;;;;5053959;28;20450;-69
2021/12/08 11:26:24;;;;;;;4.77;1.67;;;8.20;99.90;;;;;;5046999;28;20478;-67
2021/12/08 11:28:59;;;;;;;3.00;1.47;;;8.30;99.90;;;;;;5057845;28;20511;-67
2021/12/08 11:31:33;;;;;;;2.47;1.07;;;8.20;99.90;;;;;;5054547;28;20447;-68
2021/12/08 11:34:02;;;;;;;10.43;2.40;;;8.20;99.90;;;;;;5049349;28;20466;-68
2021/12/08 11:36:32;;;;;;;1.70;1.30;;;8.30;99.90;;;;;;5055547;28;20507;-67
2021/12/08 11:39:05;;;;;;;1.20;0.90;;;8.40;99.90;;;;;;5050526;28;20547;-70
2021/12/08 11:41:36;;;;;;;0.90;0.70;;;8.20;99.90;;;;;;5061069;28;20837;-68
2021/12/08 11:44:07;;;;;;;1.67;1.13;;;8.10;99.90;;;;;;5049003;28;20533;-70
2021/12/08 11:46:43;;;;;;;1.00;0.70;;;8.30;99.90;;;;;;5060216;28;20874;-70
2021/12/08 11:49:11;;;;;;;2.40;1.20;;;8.10;99.90;;;;;;5060854;28;20485;-69
2021/12/08 11:51:59;;;;;;;2.40;0.90;;;8.10;99.90;;;;;;5044208;28;21042;-70
2021/12/08 11:54:31;;;;;;;1.77;0.90;;;8.00;99.90;;;;;;5046219;28;20555;-69
2021/12/08 11:57:08;;;;;;;3.20;1.50;;;8.20;99.90;;;;;;5047588;28;20472;-68
2021/12/08 11:59:44;;;;;;;2.50;2.00;;;8.20;99.90;;;;;;5053434;28;20538;-67
2021/12/08 12:02:14;;;;;;;1.97;1.00;;;8.40;99.90;;;;;;5061976;28;20455;-69
2021/12/08 12:04:41;;;;;;;2.27;1.30;;;8.70;99.90;;;;;;5062067;28;20482;-69
2021/12/08 12:07:10;;;;;;;1.57;0.80;;;8.70;99.90;;;;;;5060718;28;20470;-70
2021/12/08 12:09:37;;;;;;;2.40;2.20;;;8.70;99.90;;;;;;5054575;28;20548;-70
2021/12/08 12:12:04;;;;;;;1.70;1.13;;;8.90;99.90;;;;;;5057129;28;20470;-70
2021/12/08 12:14:31;;;;;;;7.80;1.20;;;8.80;99.90;;;;;;5055913;28;20494;-69
2021/12/08 12:16:58;;;;;;;8.53;1.53;;;8.80;99.90;;;;;;5068354;28;20543;-69
2021/12/08 12:19:32;;;;;;;1.10;1.00;;;8.80;99.90;;;;;;5054700;28;20862;-68
2021/12/08 12:22:12;;;;;;;1.20;1.00;;;8.90;99.90;;;;;;5049363;28;22009;-69
2021/12/08 12:24:52;;;;;;;2.30;1.13;;;9.10;99.90;;;;;;5049246;28;20467;-67
2021/12/08 12:27:33;;;;;;;8.73;1.33;;;9.30;99.90;;;;;;5053625;28;20528;-67
2021/12/08 12:30:09;;;;;;;2.43;1.10;;;9.60;99.90;;;;;;5061130;28;20463;-68
2021/12/08 12:32:39;;;;;;;1.00;0.83;;;9.80;99.90;;;;;;5054049;28;20512;-67
2021/12/08 12:35:13;;;;;;;11.30;2.57;;;9.70;99.90;;;;;;5039716;28;20528;-70
2021/12/08 12:37:41;;;;;;;3.60;1.40;;;9.50;99.90;;;;;;5053851;28;20482;-66
2021/12/08 12:40:12;;;;;;;1.00;0.70;;;8.90;99.90;;;;;;5053873;28;21047;-69
2021/12/08 12:42:54;;;;;;;1.20;1.10;;;8.90;99.90;;;;;;5053452;28;20587;-68
2021/12/08 12:45:23;;;;;;;1.33;1.23;;;9.00;99.90;;;;;;5054947;28;20862;-70
2021/12/08 12:48:13;;;;;;;1.63;1.27;;;8.90;99.90;;;;;;5052198;28;20519;-67
2021/12/08 12:50:57;;;;;;;1.97;1.57;;;8.80;99.90;;;;;;5049409;28;20966;-67
2021/12/08 12:53:40;;;;;;;3.53;1.47;;;8.90;99.90;;;;;;5049667;28;20543;-68
2021/12/08 12:56:09;;;;;;;3.27;1.07;;;9.30;99.90;;;;;;5050348;28;20839;-65
2021/12/08 12:58:45;;;;;;;1.40;1.07;;;9.90;99.90;;;;;;5055510;28;20528;-67
2021/12/08 13:01:14;;;;;;;1.97;1.13;;;10.30;99.90;;;;;;5053729;28;20518;-67
2021/12/08 13:03:45;;;;;;;5.50;2.20;;;10.70;99.90;;;;;;5046042;28;20502;-67
2021/12/08 13:06:38;;;;;;;2.27;1.30;;;11.20;99.90;;;;;;5043503;28;20482;-70
2021/12/08 13:09:07;;;;;;;1.20;1.10;;;11.00;99.90;;;;;;5060885;28;20520;-69
2021/12/08 13:11:57;;;;;;;1.53;0.97;;;11.10;99.90;;;;;;5057330;28;20524;-68
2021/12/08 13:14:27;;;;;;;1.40;1.10;;;10.80;99.90;;;;;;5048261;28;20459;-69
2021/12/08 13:17:22;;;;;;;1.63;1.13;;;10.20;99.90;;;;;;5049483;28;20562;-69
2021/12/08 13:19:53;;;;;;;6.00;1.63;;;10.50;99.90;;;;;;5052653;28;20482;-69
2021/12/08 13:22:51;;;;;;;3.33;1.40;;;10.50;99.90;;;;;;5053729;28;20453;-68
2021/12/08 13:25:43;;;;;;;1.37;1.10;;;10.70;99.90;;;;;;5045584;28;20461;-69
2021/12/08 13:28:23;;;;;;;0.90;0.60;;;10.80;99.90;;;;;;5052719;28;21033;-69
2021/12/08 13:30:58;;;;;;;2.37;1.03;;;10.90;99.90;;;;;;5046087;28;20521;-69
2021/12/08 13:33:34;;;;;;;5.13;1.47;;;10.80;99.90;;;;;;5059998;28;20533;-69
2021/12/08 13:36:28;;;;;;;4.70;1.20;;;10.60;99.90;;;;;;5056492;28;20476;-68
2021/12/08 13:39:11;;;;;;;4.20;1.83;;;10.20;99.90;;;;;;5057212;28;20501;-69
2021/12/08 13:41:39;;;;;;;6.67;1.57;;;10.30;99.90;;;;;;5049276;28;20508;-70
2021/12/08 13:44:21;;;;;;;1.20;1.00;;;10.20;99.90;;;;;;5018621;28;1148264;-69
2021/12/08 13:46:50;;;;;;;1.20;0.90;;;9.90;99.90;;;;;;5065062;28;20486;-69
2021/12/08 13:49:19;;;;;;;1.00;0.80;;;9.60;99.90;;;;;;5065908;28;20451;-69
2021/12/08 13:52:02;;;;;;;1.30;0.93;;;9.60;99.90;;;;;;5061378;28;20930;-69
2021/12/08 13:54:33;;;;;;;1.60;1.30;;;9.30;99.90;;;;;;5046118;28;20588;-65